KSLC/SLC METAR and TAF weather

Enter ICAO airport designator
Station Type Date Time Source
KSLC METAR 2020/04/07 06:54 UTC NOAA

KSLC 070654Z 17010KT 10SM FEW070 BKN095 12/M01 A2997 RMK AO2 SLP119 T01221011 401720117


Station Type Date Time Source
KSLC Decoded METAR 2020/04/07 06:54 UTC NOAA

SALT LAKE CITY INTERNATIONAL AIRPORT , UT, United States (KSLC) 40-47N 111-58W 1286M
Apr 07, 2020 - 02:54 AM EDT / 2020.04.07 0654 UTC
Wind: from the S (170 degrees) at 12 MPH (10 KT):0
Visibility: 10 mile(s):0
Sky conditions: mostly cloudy
Temperature: 54.0 F (12.2 C)
Dew Point: 30.0 F (-1.1 C)
Relative Humidity: 39%
Pressure (altimeter): 29.97 in. Hg (1014 hPa)
ob: KSLC 070654Z 17010KT 10SM FEW070 BKN095 12/M01 A2997 RMK AO2 SLP119 T01221011 401720117
cycle: 7

Station Type Date Time Source
KSLC TAF 2020/04/07 06:22 UTC NOAA

TAF KSLC 070520Z 0706/0812 15011KT P6SM SCT060 SCT120
FM071800 17012G20KT P6SM SCT060 BKN120
FM080300 15006KT P6SM SCT060 SCT120

Example: see airport list